sensor_id;sensor_type;location;lat;lon;timestamp;temperature;humidity
55091;DHT22;40985;53.180;5.800;2022-09-21T00:00:46;8.80;99.90
55091;DHT22;40985;53.180;5.800;2022-09-21T00:03:14;8.80;99.90
55091;DHT22;40985;53.180;5.800;2022-09-21T00:05:40;8.80;99.90
55091;DHT22;40985;53.180;5.800;2022-09-21T00:08:07;8.70;99.90
55091;DHT22;40985;53.180;5.800;2022-09-21T00:10:33;8.70;99.90
55091;DHT22;40985;53.180;5.800;2022-09-21T00:12:59;8.70;99.90
55091;DHT22;40985;53.180;5.800;2022-09-21T00:15:29;8.70;99.90
55091;DHT22;40985;53.180;5.800;2022-09-21T00:17:57;8.70;99.90
55091;DHT22;40985;53.180;5.800;2022-09-21T00:20:24;8.80;99.90
55091;DHT22;40985;53.180;5.800;2022-09-21T00:22:51;8.70;99.90
55091;DHT22;40985;53.180;5.800;2022-09-21T00:25:18;8.70;99.90
55091;DHT22;40985;53.180;5.800;2022-09-21T00:27:44;8.70;99.90
55091;DHT22;40985;53.180;5.800;2022-09-21T00:30:12;8.80;99.90
55091;DHT22;40985;53.180;5.800;2022-09-21T00:32:38;8.70;99.90
55091;DHT22;40985;53.180;5.800;2022-09-21T00:35:05;8.70;99.90
55091;DHT22;40985;53.180;5.800;2022-09-21T00:37:34;8.70;99.90
55091;DHT22;40985;53.180;5.800;2022-09-21T00:40:00;8.70;99.90
55091;DHT22;40985;53.180;5.800;2022-09-21T00:42:32;8.70;99.90
55091;DHT22;40985;53.180;5.800;2022-09-21T00:44:58;8.70;99.90
55091;DHT22;40985;53.180;5.800;2022-09-21T00:47:42;8.70;99.90
55091;DHT22;40985;53.180;5.800;2022-09-21T00:50:13;8.70;99.90
55091;DHT22;40985;53.180;5.800;2022-09-21T00:52:45;8.70;99.90
55091;DHT22;40985;53.180;5.800;2022-09-21T00:55:17;8.70;99.90
55091;DHT22;40985;53.180;5.800;2022-09-21T00:57:50;8.70;99.90
55091;DHT22;40985;53.180;5.800;2022-09-21T01:00:17;8.60;99.90
55091;DHT22;40985;53.180;5.800;2022-09-21T01:02:43;8.60;99.90
55091;DHT22;40985;53.180;5.800;2022-09-21T01:05:10;8.60;99.90
55091;DHT22;40985;53.180;5.800;2022-09-21T01:07:41;8.50;99.90
55091;DHT22;40985;53.180;5.800;2022-09-21T01:10:10;8.50;99.90
55091;DHT22;40985;53.180;5.800;2022-09-21T01:12:46;8.50;99.90
55091;DHT22;40985;53.180;5.800;2022-09-21T01:18:39;8.40;99.90
55091;DHT22;40985;53.180;5.800;2022-09-21T01:21:29;8.40;99.90
55091;DHT22;40985;53.180;5.800;2022-09-21T01:24:14;8.40;99.90
55091;DHT22;40985;53.180;5.800;2022-09-21T01:27:22;8.30;99.90
55091;DHT22;40985;53.180;5.800;2022-09-21T01:29:56;8.20;99.90
55091;DHT22;40985;53.180;5.800;2022-09-21T01:32:47;8.10;99.90
55091;DHT22;40985;53.180;5.800;2022-09-21T01:35:19;8.10;99.90
55091;DHT22;40985;53.180;5.800;2022-09-21T01:37:56;8.10;99.90
55091;DHT22;40985;53.180;5.800;2022-09-21T01:40:41;8.10;99.90
55091;DHT22;40985;53.180;5.800;2022-09-21T01:43:12;8.10;99.90
55091;DHT22;40985;53.180;5.800;2022-09-21T01:45:43;8.10;99.90
55091;DHT22;40985;53.180;5.800;2022-09-21T01:48:11;8.00;99.90
55091;DHT22;40985;53.180;5.800;2022-09-21T01:50:42;8.00;99.90
55091;DHT22;40985;53.180;5.800;2022-09-21T01:53:22;8.00;99.90
55091;DHT22;40985;53.180;5.800;2022-09-21T01:55:54;8.00;99.90
55091;DHT22;40985;53.180;5.800;2022-09-21T01:58:32;8.00;99.90
55091;DHT22;40985;53.180;5.800;2022-09-21T02:01:00;7.90;99.90
55091;DHT22;40985;53.180;5.800;2022-09-21T02:03:42;7.90;99.90
55091;DHT22;40985;53.180;5.800;2022-09-21T02:06:09;7.80;99.90
55091;DHT22;40985;53.180;5.800;2022-09-21T02:08:36;7.70;99.90
55091;DHT22;40985;53.180;5.800;2022-09-21T02:11:04;7.70;99.90
55091;DHT22;40985;53.180;5.800;2022-09-21T02:13:37;7.70;99.90
55091;DHT22;40985;53.180;5.800;2022-09-21T02:21:24;7.60;99.90
55091;DHT22;40985;53.180;5.800;2022-09-21T02:24:07;7.60;99.90
55091;DHT22;40985;53.180;5.800;2022-09-21T02:26:47;7.60;99.90
55091;DHT22;40985;53.180;5.800;2022-09-21T02:29:43;7.60;99.90
55091;DHT22;40985;53.180;5.800;2022-09-21T02:32:14;7.50;99.90
55091;DHT22;40985;53.180;5.800;2022-09-21T02:34:50;7.60;99.90
55091;DHT22;40985;53.180;5.800;2022-09-21T02:37:31;7.60;99.90
55091;DHT22;40985;53.180;5.800;2022-09-21T02:42:40;7.50;99.90
55091;DHT22;40985;53.180;5.800;2022-09-21T02:45:14;7.50;99.90
55091;DHT22;40985;53.180;5.800;2022-09-21T02:48:07;7.50;99.90
55091;DHT22;40985;53.180;5.800;2022-09-21T02:51:05;7.50;99.90
55091;DHT22;40985;53.180;5.800;2022-09-21T02:53:32;7.50;99.90
55091;DHT22;40985;53.180;5.800;2022-09-21T02:56:00;7.50;99.90
55091;DHT22;40985;53.180;5.800;2022-09-21T02:58:39;7.50;99.90
55091;DHT22;40985;53.180;5.800;2022-09-21T03:01:10;7.50;99.90
55091;DHT22;40985;53.180;5.800;2022-09-21T03:03:35;7.50;99.90
55091;DHT22;40985;53.180;5.800;2022-09-21T03:06:01;7.50;99.90
55091;DHT22;40985;53.180;5.800;2022-09-21T03:08:27;7.50;99.90
55091;DHT22;40985;53.180;5.800;2022-09-21T03:10:53;7.50;99.90
55091;DHT22;40985;53.180;5.800;2022-09-21T03:13:19;7.50;99.90
55091;DHT22;40985;53.180;5.800;2022-09-21T03:15:44;7.60;99.90
55091;DHT22;40985;53.180;5.800;2022-09-21T03:18:11;7.50;99.90
55091;DHT22;40985;53.180;5.800;2022-09-21T03:20:38;7.60;99.90
55091;DHT22;40985;53.180;5.800;2022-09-21T03:23:04;7.60;99.90
55091;DHT22;40985;53.180;5.800;2022-09-21T03:25:30;7.60;99.90
55091;DHT22;40985;53.180;5.800;2022-09-21T03:27:57;7.50;99.90
55091;DHT22;40985;53.180;5.800;2022-09-21T03:30:24;7.50;99.90
55091;DHT22;40985;53.180;5.800;2022-09-21T03:32:51;7.50;99.90
55091;DHT22;40985;53.180;5.800;2022-09-21T03:35:18;7.40;99.90
55091;DHT22;40985;53.180;5.800;2022-09-21T03:37:44;7.40;99.90
55091;DHT22;40985;53.180;5.800;2022-09-21T03:40:14;7.40;99.90
55091;DHT22;40985;53.180;5.800;2022-09-21T03:42:41;7.50;99.90
55091;DHT22;40985;53.180;5.800;2022-09-21T03:45:07;7.50;99.90
55091;DHT22;40985;53.180;5.800;2022-09-21T03:47:34;7.50;99.90
55091;DHT22;40985;53.180;5.800;2022-09-21T03:49:59;7.50;99.90
55091;DHT22;40985;53.180;5.800;2022-09-21T03:52:25;7.50;99.90
55091;DHT22;40985;53.180;5.800;2022-09-21T03:54:51;7.40;99.90
55091;DHT22;40985;53.180;5.800;2022-09-21T03:57:17;7.40;99.90
55091;DHT22;40985;53.180;5.800;2022-09-21T03:59:42;7.50;99.90
55091;DHT22;40985;53.180;5.800;2022-09-21T04:02:08;7.50;99.90
55091;DHT22;40985;53.180;5.800;2022-09-21T04:04:34;7.50;99.90
55091;DHT22;40985;53.180;5.800;2022-09-21T04:06:59;7.50;99.90
55091;DHT22;40985;53.180;5.800;2022-09-21T04:09:25;7.40;99.90
55091;DHT22;40985;53.180;5.800;2022-09-21T04:11:51;7.40;99.90
55091;DHT22;40985;53.180;5.800;2022-09-21T04:14:19;7.40;99.90
55091;DHT22;40985;53.180;5.800;2022-09-21T04:16:45;7.40;99.90
55091;DHT22;40985;53.180;5.800;2022-09-21T04:19:11;7.40;99.90
55091;DHT22;40985;53.180;5.800;2022-09-21T04:21:37;7.30;99.90
55091;DHT22;40985;53.180;5.800;2022-09-21T04:24:03;7.40;99.90
55091;DHT22;40985;53.180;5.800;2022-09-21T04:26:31;7.30;99.90
55091;DHT22;40985;53.180;5.800;2022-09-21T04:28:58;7.30;99.90
55091;DHT22;40985;53.180;5.800;2022-09-21T04:31:24;7.20;99.90
55091;DHT22;40985;53.180;5.800;2022-09-21T04:33:51;7.20;99.90
55091;DHT22;40985;53.180;5.800;2022-09-21T04:36:19;7.20;99.90
55091;DHT22;40985;53.180;5.800;2022-09-21T04:38:46;7.20;99.90
55091;DHT22;40985;53.180;5.800;2022-09-21T04:41:12;7.20;99.90
55091;DHT22;40985;53.180;5.800;2022-09-21T04:43:40;7.10;99.90
55091;DHT22;40985;53.180;5.800;2022-09-21T04:46:11;7.10;99.90
55091;DHT22;40985;53.180;5.800;2022-09-21T04:48:38;7.00;99.90
55091;DHT22;40985;53.180;5.800;2022-09-21T04:51:04;7.00;99.90
55091;DHT22;40985;53.180;5.800;2022-09-21T04:53:32;7.00;99.90
55091;DHT22;40985;53.180;5.800;2022-09-21T04:55:58;7.00;99.90
55091;DHT22;40985;53.180;5.800;2022-09-21T04:58:24;7.00;99.90
55091;DHT22;40985;53.180;5.800;2022-09-21T05:00:51;7.00;99.90
55091;DHT22;40985;53.180;5.800;2022-09-21T05:03:18;7.00;99.90
55091;DHT22;40985;53.180;5.800;2022-09-21T05:05:51;7.00;99.90
55091;DHT22;40985;53.180;5.800;2022-09-21T05:08:18;7.00;99.90
55091;DHT22;40985;53.180;5.800;2022-09-21T05:11:05;7.00;99.90
55091;DHT22;40985;53.180;5.800;2022-09-21T05:13:30;7.00;99.90
55091;DHT22;40985;53.180;5.800;2022-09-21T05:15:56;7.00;99.90
55091;DHT22;40985;53.180;5.800;2022-09-21T05:18:22;7.10;99.90
55091;DHT22;40985;53.180;5.800;2022-09-21T05:20:57;7.10;99.90
55091;DHT22;40985;53.180;5.800;2022-09-21T05:23:24;7.00;99.90
55091;DHT22;40985;53.180;5.800;2022-09-21T05:25:50;7.00;99.90
55091;DHT22;40985;53.180;5.800;2022-09-21T05:28:19;7.00;99.90
55091;DHT22;40985;53.180;5.800;2022-09-21T05:30:50;7.00;99.90
55091;DHT22;40985;53.180;5.800;2022-09-21T05:33:19;6.90;99.90
55091;DHT22;40985;53.180;5.800;2022-09-21T05:38:20;7.00;99.90
55091;DHT22;40985;53.180;5.800;2022-09-21T05:40:46;6.90;99.90
55091;DHT22;40985;53.180;5.800;2022-09-21T05:43:15;6.90;99.90
55091;DHT22;40985;53.180;5.800;2022-09-21T05:45:46;6.90;99.90
55091;DHT22;40985;53.180;5.800;2022-09-21T05:48:25;6.90;99.90
55091;DHT22;40985;53.180;5.800;2022-09-21T06:04:39;7.10;99.90
55091;DHT22;40985;53.180;5.800;2022-09-21T06:07:05;7.10;99.90
55091;DHT22;40985;53.180;5.800;2022-09-21T06:09:30;7.10;99.90
55091;DHT22;40985;53.180;5.800;2022-09-21T06:11:56;7.10;99.90
55091;DHT22;40985;53.180;5.800;2022-09-21T06:14:22;7.20;99.90
55091;DHT22;40985;53.180;5.800;2022-09-21T06:16:50;7.20;99.90
55091;DHT22;40985;53.180;5.800;2022-09-21T06:19:16;7.20;99.90
55091;DHT22;40985;53.180;5.800;2022-09-21T06:21:42;7.20;99.90
55091;DHT22;40985;53.180;5.800;2022-09-21T06:24:08;7.30;99.90
55091;DHT22;40985;53.180;5.800;2022-09-21T06:26:34;7.30;99.90
55091;DHT22;40985;53.180;5.800;2022-09-21T06:29:00;7.40;99.90
55091;DHT22;40985;53.180;5.800;2022-09-21T06:31:26;7.40;99.90
55091;DHT22;40985;53.180;5.800;2022-09-21T06:33:52;7.50;99.90
55091;DHT22;40985;53.180;5.800;2022-09-21T06:36:18;7.60;99.90
55091;DHT22;40985;53.180;5.800;2022-09-21T06:38:44;7.60;99.90
55091;DHT22;40985;53.180;5.800;2022-09-21T06:41:09;7.70;99.90
55091;DHT22;40985;53.180;5.800;2022-09-21T06:43:35;7.70;99.90
55091;DHT22;40985;53.180;5.800;2022-09-21T06:46:02;7.80;99.90
55091;DHT22;40985;53.180;5.800;2022-09-21T06:48:28;7.80;99.90
55091;DHT22;40985;53.180;5.800;2022-09-21T06:51:03;7.80;99.90
55091;DHT22;40985;53.180;5.800;2022-09-21T06:53:31;8.00;99.90
55091;DHT22;40985;53.180;5.800;2022-09-21T06:58:28;8.10;99.90
55091;DHT22;40985;53.180;5.800;2022-09-21T07:00:54;8.20;99.90
55091;DHT22;40985;53.180;5.800;2022-09-21T07:03:20;8.30;99.90
55091;DHT22;40985;53.180;5.800;2022-09-21T07:05:45;8.30;99.90
55091;DHT22;40985;53.180;5.800;2022-09-21T07:08:11;8.50;99.90
55091;DHT22;40985;53.180;5.800;2022-09-21T07:10:37;8.50;99.90
55091;DHT22;40985;53.180;5.800;2022-09-21T07:13:03;8.60;99.90
55091;DHT22;40985;53.180;5.800;2022-09-21T07:15:30;8.70;99.90
55091;DHT22;40985;53.180;5.800;2022-09-21T07:17:56;8.80;99.90
55091;DHT22;40985;53.180;5.800;2022-09-21T07:20:22;8.90;99.90
55091;DHT22;40985;53.180;5.800;2022-09-21T07:22:48;9.00;99.90
55091;DHT22;40985;53.180;5.800;2022-09-21T07:25:14;9.10;99.90
55091;DHT22;40985;53.180;5.800;2022-09-21T07:27:40;9.20;99.90
55091;DHT22;40985;53.180;5.800;2022-09-21T07:30:06;9.40;99.90
55091;DHT22;40985;53.180;5.800;2022-09-21T07:32:33;9.50;99.90
55091;DHT22;40985;53.180;5.800;2022-09-21T07:34:59;9.60;99.90
55091;DHT22;40985;53.180;5.800;2022-09-21T07:37:25;9.70;99.90
55091;DHT22;40985;53.180;5.800;2022-09-21T07:39:52;9.80;99.90
55091;DHT22;40985;53.180;5.800;2022-09-21T07:42:18;10.00;99.90
55091;DHT22;40985;53.180;5.800;2022-09-21T07:44:46;10.20;99.90
55091;DHT22;40985;53.180;5.800;2022-09-21T07:47:12;10.40;99.90
55091;DHT22;40985;53.180;5.800;2022-09-21T07:49:38;10.50;99.90
55091;DHT22;40985;53.180;5.800;2022-09-21T07:52:04;10.70;99.90
55091;DHT22;40985;53.180;5.800;2022-09-21T07:54:30;10.70;99.90
55091;DHT22;40985;53.180;5.800;2022-09-21T07:56:58;10.80;99.90
55091;DHT22;40985;53.180;5.800;2022-09-21T07:59:42;10.90;99.90
55091;DHT22;40985;53.180;5.800;2022-09-21T08:02:08;10.90;99.90
55091;DHT22;40985;53.180;5.800;2022-09-21T08:04:33;11.10;99.90
55091;DHT22;40985;53.180;5.800;2022-09-21T08:06:59;11.20;99.90
55091;DHT22;40985;53.180;5.800;2022-09-21T08:09:25;11.30;99.90
55091;DHT22;40985;53.180;5.800;2022-09-21T08:11:50;11.40;99.90
55091;DHT22;40985;53.180;5.800;2022-09-21T08:14:17;11.50;99.90
55091;DHT22;40985;53.180;5.800;2022-09-21T08:16:46;11.70;99.90
55091;DHT22;40985;53.180;5.800;2022-09-21T08:19:15;11.80;99.90
55091;DHT22;40985;53.180;5.800;2022-09-21T08:21:47;11.90;99.90
55091;DHT22;40985;53.180;5.800;2022-09-21T08:24:14;12.00;99.90
55091;DHT22;40985;53.180;5.800;2022-09-21T08:26:39;12.10;99.90
55091;DHT22;40985;53.180;5.800;2022-09-21T08:29:05;12.10;99.90
55091;DHT22;40985;53.180;5.800;2022-09-21T08:31:31;12.20;99.90
55091;DHT22;40985;53.180;5.800;2022-09-21T08:33:57;12.30;99.90
55091;DHT22;40985;53.180;5.800;2022-09-21T08:36:23;12.40;99.90
55091;DHT22;40985;53.180;5.800;2022-09-21T08:38:49;12.50;99.90
55091;DHT22;40985;53.180;5.800;2022-09-21T08:44:18;12.70;99.90
55091;DHT22;40985;53.180;5.800;2022-09-21T08:46:48;12.70;99.90
55091;DHT22;40985;53.180;5.800;2022-09-21T08:49:23;12.80;99.90
55091;DHT22;40985;53.180;5.800;2022-09-21T08:51:55;12.90;99.90
55091;DHT22;40985;53.180;5.800;2022-09-21T08:57:13;13.00;99.90
55091;DHT22;40985;53.180;5.800;2022-09-21T08:59:47;13.10;99.90
55091;DHT22;40985;53.180;5.800;2022-09-21T09:10:33;13.40;99.90
55091;DHT22;40985;53.180;5.800;2022-09-21T09:18:50;13.60;99.90
55091;DHT22;40985;53.180;5.800;2022-09-21T09:23:50;13.90;99.90
55091;DHT22;40985;53.180;5.800;2022-09-21T09:29:05;14.10;99.90
55091;DHT22;40985;53.180;5.800;2022-09-21T09:31:33;14.20;99.90
55091;DHT22;40985;53.180;5.800;2022-09-21T09:36:57;14.40;99.90
55091;DHT22;40985;53.180;5.800;2022-09-21T09:39:24;14.50;99.90
55091;DHT22;40985;53.180;5.800;2022-09-21T09:52:56;14.70;99.90
55091;DHT22;40985;53.180;5.800;2022-09-21T09:55:35;14.80;99.90
55091;DHT22;40985;53.180;5.800;2022-09-21T09:58:02;14.90;99.90
55091;DHT22;40985;53.180;5.800;2022-09-21T10:00:27;15.10;99.90
55091;DHT22;40985;53.180;5.800;2022-09-21T10:02:55;15.30;99.90
55091;DHT22;40985;53.180;5.800;2022-09-21T10:07:53;15.50;99.90
55091;DHT22;40985;53.180;5.800;2022-09-21T10:13:12;15.70;99.90
55091;DHT22;40985;53.180;5.800;2022-09-21T10:15:53;15.80;99.90
55091;DHT22;40985;53.180;5.800;2022-09-21T10:18:38;15.90;99.90
55091;DHT22;40985;53.180;5.800;2022-09-21T10:21:14;15.60;99.90
55091;DHT22;40985;53.180;5.800;2022-09-21T10:24:04;15.50;99.90
55091;DHT22;40985;53.180;5.800;2022-09-21T10:26:33;15.30;99.90
55091;DHT22;40985;53.180;5.800;2022-09-21T10:29:02;15.30;99.90
55091;DHT22;40985;53.180;5.800;2022-09-21T10:32:03;15.50;99.90
55091;DHT22;40985;53.180;5.800;2022-09-21T10:34:34;15.70;99.90
55091;DHT22;40985;53.180;5.800;2022-09-21T10:37:04;15.70;99.90
55091;DHT22;40985;53.180;5.800;2022-09-21T10:39:46;15.80;99.90
55091;DHT22;40985;53.180;5.800;2022-09-21T10:42:15;16.00;99.90
55091;DHT22;40985;53.180;5.800;2022-09-21T10:44:50;16.10;99.90
55091;DHT22;40985;53.180;5.800;2022-09-21T10:50:04;16.30;99.90
55091;DHT22;40985;53.180;5.800;2022-09-21T10:52:34;16.30;99.90
55091;DHT22;40985;53.180;5.800;2022-09-21T10:55:00;16.30;99.90
55091;DHT22;40985;53.180;5.800;2022-09-21T10:57:27;16.30;99.90
55091;DHT22;40985;53.180;5.800;2022-09-21T10:59:53;16.40;99.90
55091;DHT22;40985;53.180;5.800;2022-09-21T11:05:13;16.50;99.90
55091;DHT22;40985;53.180;5.800;2022-09-21T11:10:48;16.60;99.90
55091;DHT22;40985;53.180;5.800;2022-09-21T11:16:01;16.60;99.90
55091;DHT22;40985;53.180;5.800;2022-09-21T11:19:00;16.60;99.90
55091;DHT22;40985;53.180;5.800;2022-09-21T11:26:56;16.70;99.90
55091;DHT22;40985;53.180;5.800;2022-09-21T11:29:37;16.80;99.90
55091;DHT22;40985;53.180;5.800;2022-09-21T11:32:21;16.90;99.90
55091;DHT22;40985;53.180;5.800;2022-09-21T11:43:49;17.10;99.90
55091;DHT22;40985;53.180;5.800;2022-09-21T11:47:01;17.10;99.90
55091;DHT22;40985;53.180;5.800;2022-09-21T12:05:53;17.70;99.90
55091;DHT22;40985;53.180;5.800;2022-09-21T12:19:20;17.70;99.90
55091;DHT22;40985;53.180;5.800;2022-09-21T12:24:52;18.00;99.90
55091;DHT22;40985;53.180;5.800;2022-09-21T12:29:49;18.00;99.90
55091;DHT22;40985;53.180;5.800;2022-09-21T12:34:59;17.70;99.90
55091;DHT22;40985;53.180;5.800;2022-09-21T12:40:55;17.60;99.90
55091;DHT22;40985;53.180;5.800;2022-09-21T12:43:44;17.40;99.90
55091;DHT22;40985;53.180;5.800;2022-09-21T12:46:19;17.10;99.90
55091;DHT22;40985;53.180;5.800;2022-09-21T12:48:45;17.20;99.90
55091;DHT22;40985;53.180;5.800;2022-09-21T12:51:42;17.30;99.90
55091;DHT22;40985;53.180;5.800;2022-09-21T12:54:32;17.40;99.90
55091;DHT22;40985;53.180;5.800;2022-09-21T12:57:32;17.50;99.90
55091;DHT22;40985;53.180;5.800;2022-09-21T13:00:09;17.50;99.90
55091;DHT22;40985;53.180;5.800;2022-09-21T13:02:48;17.40;99.90
55091;DHT22;40985;53.180;5.800;2022-09-21T13:08:02;17.00;99.90
55091;DHT22;40985;53.180;5.800;2022-09-21T13:11:03;17.10;99.90
55091;DHT22;40985;53.180;5.800;2022-09-21T13:14:06;17.00;99.90
55091;DHT22;40985;53.180;5.800;2022-09-21T13:16:33;16.90;99.90
55091;DHT22;40985;53.180;5.800;2022-09-21T13:21:38;17.00;99.90
55091;DHT22;40985;53.180;5.800;2022-09-21T13:24:05;17.40;99.90
55091;DHT22;40985;53.180;5.800;2022-09-21T13:26:40;17.60;99.90
55091;DHT22;40985;53.180;5.800;2022-09-21T13:34:33;18.00;99.90
55091;DHT22;40985;53.180;5.800;2022-09-21T13:44:53;18.20;99.90
55091;DHT22;40985;53.180;5.800;2022-09-21T13:47:52;17.90;99.90
55091;DHT22;40985;53.180;5.800;2022-09-21T13:50:54;17.70;99.90
55091;DHT22;40985;53.180;5.800;2022-09-21T13:53:29;17.40;99.90
55091;DHT22;40985;53.180;5.800;2022-09-21T13:56:18;17.20;99.90
55091;DHT22;40985;53.180;5.800;2022-09-21T13:58:47;17.00;99.90
55091;DHT22;40985;53.180;5.800;2022-09-21T14:01:19;16.80;99.90
55091;DHT22;40985;53.180;5.800;2022-09-21T14:03:54;16.60;99.90
55091;DHT22;40985;53.180;5.800;2022-09-21T14:06:31;16.50;99.90
55091;DHT22;40985;53.180;5.800;2022-09-21T14:09:00;16.60;99.90
55091;DHT22;40985;53.180;5.800;2022-09-21T14:11:34;16.50;99.90
55091;DHT22;40985;53.180;5.800;2022-09-21T14:27:32;16.00;99.90
55091;DHT22;40985;53.180;5.800;2022-09-21T14:30:04;15.90;99.90
55091;DHT22;40985;53.180;5.800;2022-09-21T14:32:42;15.90;99.90
55091;DHT22;40985;53.180;5.800;2022-09-21T14:35:21;15.80;99.90
55091;DHT22;40985;53.180;5.800;2022-09-21T14:37:51;15.80;99.90
55091;DHT22;40985;53.180;5.800;2022-09-21T14:40:28;15.70;99.90
55091;DHT22;40985;53.180;5.800;2022-09-21T14:42:57;15.60;99.90
55091;DHT22;40985;53.180;5.800;2022-09-21T14:49:12;15.70;99.90
55091;DHT22;40985;53.180;5.800;2022-09-21T14:57:21;15.60;99.90
55091;DHT22;40985;53.180;5.800;2022-09-21T15:00:36;15.60;99.90
55091;DHT22;40985;53.180;5.800;2022-09-21T15:06:26;15.60;99.90
55091;DHT22;40985;53.180;5.800;2022-09-21T15:17:59;15.60;99.90
55091;DHT22;40985;53.180;5.800;2022-09-21T15:20:29;15.50;99.90
55091;DHT22;40985;53.180;5.800;2022-09-21T15:22:57;15.50;99.90
55091;DHT22;40985;53.180;5.800;2022-09-21T15:25:29;15.60;99.90
55091;DHT22;40985;53.180;5.800;2022-09-21T15:27:56;15.70;99.90
55091;DHT22;40985;53.180;5.800;2022-09-21T15:30:24;15.90;99.90
55091;DHT22;40985;53.180;5.800;2022-09-21T15:33:01;16.00;99.90
55091;DHT22;40985;53.180;5.800;2022-09-21T15:35:31;16.20;99.90
55091;DHT22;40985;53.180;5.800;2022-09-21T15:37:58;16.20;99.90
55091;DHT22;40985;53.180;5.800;2022-09-21T15:40:34;16.30;99.90
55091;DHT22;40985;53.180;5.800;2022-09-21T15:45:46;16.30;99.90
55091;DHT22;40985;53.180;5.800;2022-09-21T15:48:13;16.30;99.90
55091;DHT22;40985;53.180;5.800;2022-09-21T15:50:40;16.40;99.90
55091;DHT22;40985;53.180;5.800;2022-09-21T15:53:28;16.40;99.90
55091;DHT22;40985;53.180;5.800;2022-09-21T15:55:56;16.30;99.90
55091;DHT22;40985;53.180;5.800;2022-09-21T15:58:36;16.30;99.90
55091;DHT22;40985;53.180;5.800;2022-09-21T16:01:08;16.30;99.90
55091;DHT22;40985;53.180;5.800;2022-09-21T16:03:35;16.20;99.90
55091;DHT22;40985;53.180;5.800;2022-09-21T16:08:42;16.10;99.90
55091;DHT22;40985;53.180;5.800;2022-09-21T16:13:38;16.10;99.90
55091;DHT22;40985;53.180;5.800;2022-09-21T16:16:23;16.00;99.90
55091;DHT22;40985;53.180;5.800;2022-09-21T16:18:56;16.00;99.90
55091;DHT22;40985;53.180;5.800;2022-09-21T16:21:30;16.10;99.90
55091;DHT22;40985;53.180;5.800;2022-09-21T16:24:16;16.00;99.90
55091;DHT22;40985;53.180;5.800;2022-09-21T16:26:58;16.00;99.90
55091;DHT22;40985;53.180;5.800;2022-09-21T16:29:27;16.00;99.90
55091;DHT22;40985;53.180;5.800;2022-09-21T16:34:45;16.00;99.90
55091;DHT22;40985;53.180;5.800;2022-09-21T16:39:50;15.90;99.90
55091;DHT22;40985;53.180;5.800;2022-09-21T16:42:17;15.80;99.90
55091;DHT22;40985;53.180;5.800;2022-09-21T16:44:43;15.80;99.90
55091;DHT22;40985;53.180;5.800;2022-09-21T16:47:21;15.80;99.90
55091;DHT22;40985;53.180;5.800;2022-09-21T16:49:50;15.70;99.90
55091;DHT22;40985;53.180;5.800;2022-09-21T16:52:25;15.70;99.90
55091;DHT22;40985;53.180;5.800;2022-09-21T16:54:53;15.70;99.90
55091;DHT22;40985;53.180;5.800;2022-09-21T16:57:21;15.60;99.90
55091;DHT22;40985;53.180;5.800;2022-09-21T16:59:47;15.50;99.90
55091;DHT22;40985;53.180;5.800;2022-09-21T17:02:15;15.50;99.90
55091;DHT22;40985;53.180;5.800;2022-09-21T17:04:41;15.40;99.90
55091;DHT22;40985;53.180;5.800;2022-09-21T17:07:10;15.30;99.90
55091;DHT22;40985;53.180;5.800;2022-09-21T17:09:38;15.20;99.90
55091;DHT22;40985;53.180;5.800;2022-09-21T17:12:06;15.20;99.90
55091;DHT22;40985;53.180;5.800;2022-09-21T17:14:34;15.10;99.90
55091;DHT22;40985;53.180;5.800;2022-09-21T17:17:03;15.00;99.90
55091;DHT22;40985;53.180;5.800;2022-09-21T17:19:30;14.90;99.90
55091;DHT22;40985;53.180;5.800;2022-09-21T17:21:56;14.80;99.90
55091;DHT22;40985;53.180;5.800;2022-09-21T17:24:24;14.70;99.90
55091;DHT22;40985;53.180;5.800;2022-09-21T17:26:51;14.60;99.90
55091;DHT22;40985;53.180;5.800;2022-09-21T17:29:27;14.50;99.90
55091;DHT22;40985;53.180;5.800;2022-09-21T17:31:55;14.40;99.90
55091;DHT22;40985;53.180;5.800;2022-09-21T17:34:23;14.30;99.90
55091;DHT22;40985;53.180;5.800;2022-09-21T17:36:50;14.20;99.90
55091;DHT22;40985;53.180;5.800;2022-09-21T17:39:16;14.10;99.90
55091;DHT22;40985;53.180;5.800;2022-09-21T17:41:58;14.00;99.90
55091;DHT22;40985;53.180;5.800;2022-09-21T17:44:41;13.80;99.90
55091;DHT22;40985;53.180;5.800;2022-09-21T17:49:35;13.70;99.90
55091;DHT22;40985;53.180;5.800;2022-09-21T17:52:02;13.60;99.90
55091;DHT22;40985;53.180;5.800;2022-09-21T17:54:51;13.50;99.90
55091;DHT22;40985;53.180;5.800;2022-09-21T18:00:29;13.40;99.90
55091;DHT22;40985;53.180;5.800;2022-09-21T18:02:56;13.30;99.90
55091;DHT22;40985;53.180;5.800;2022-09-21T18:05:27;13.30;99.90
55091;DHT22;40985;53.180;5.800;2022-09-21T18:07:53;13.20;99.90
55091;DHT22;40985;53.180;5.800;2022-09-21T18:10:21;13.10;99.90
55091;DHT22;40985;53.180;5.800;2022-09-21T18:15:35;13.00;99.90
55091;DHT22;40985;53.180;5.800;2022-09-21T18:21:08;12.80;99.90
55091;DHT22;40985;53.180;5.800;2022-09-21T18:26:42;12.60;99.90
55091;DHT22;40985;53.180;5.800;2022-09-21T18:29:34;12.60;99.90
55091;DHT22;40985;53.180;5.800;2022-09-21T18:35:17;12.40;99.90
55091;DHT22;40985;53.180;5.800;2022-09-21T18:41:08;12.20;99.90
55091;DHT22;40985;53.180;5.800;2022-09-21T18:46:30;12.10;99.90
55091;DHT22;40985;53.180;5.800;2022-09-21T18:49:17;12.10;99.90
55091;DHT22;40985;53.180;5.800;2022-09-21T18:54:38;11.90;99.90
55091;DHT22;40985;53.180;5.800;2022-09-21T18:57:11;11.90;99.90
55091;DHT22;40985;53.180;5.800;2022-09-21T18:59:37;11.80;99.90
55091;DHT22;40985;53.180;5.800;2022-09-21T19:02:11;11.80;99.90
55091;DHT22;40985;53.180;5.800;2022-09-21T19:04:40;11.70;99.90
55091;DHT22;40985;53.180;5.800;2022-09-21T19:12:50;11.50;99.90
55091;DHT22;40985;53.180;5.800;2022-09-21T19:15:47;11.40;99.90
55091;DHT22;40985;53.180;5.800;2022-09-21T19:18:44;11.30;99.90
55091;DHT22;40985;53.180;5.800;2022-09-21T19:21:30;11.30;99.90
55091;DHT22;40985;53.180;5.800;2022-09-21T19:24:08;11.30;99.90
55091;DHT22;40985;53.180;5.800;2022-09-21T19:29:50;11.20;99.90
55091;DHT22;40985;53.180;5.800;2022-09-21T19:32:34;11.20;99.90
55091;DHT22;40985;53.180;5.800;2022-09-21T19:35:24;11.10;99.90
55091;DHT22;40985;53.180;5.800;2022-09-21T19:37:53;11.00;99.90
55091;DHT22;40985;53.180;5.800;2022-09-21T19:40:24;10.90;99.90
55091;DHT22;40985;53.180;5.800;2022-09-21T19:43:29;10.90;99.90
55091;DHT22;40985;53.180;5.800;2022-09-21T19:48:42;10.70;99.90
55091;DHT22;40985;53.180;5.800;2022-09-21T19:51:37;10.70;99.90
55091;DHT22;40985;53.180;5.800;2022-09-21T19:54:13;10.60;99.90
55091;DHT22;40985;53.180;5.800;2022-09-21T19:56:58;10.50;99.90
55091;DHT22;40985;53.180;5.800;2022-09-21T19:59:43;10.50;99.90
55091;DHT22;40985;53.180;5.800;2022-09-21T20:07:47;10.40;99.90
55091;DHT22;40985;53.180;5.800;2022-09-21T20:13:16;10.30;99.90
55091;DHT22;40985;53.180;5.800;2022-09-21T20:16:17;10.30;99.90
55091;DHT22;40985;53.180;5.800;2022-09-21T20:19:16;10.20;99.90